Time,TemperatureF,DewpointF,PressureIn,WindDirection,WindDirectionDegrees,WindSpeedMPH,WindSpeedGustMPH,Humidity,HourlyPrecipIn,Conditions,Clouds,dailyrainin,SoftwareType,DateUTC
2013-02-21 00:01:00,-8.0,-14.0,-100.00,NNE,25,6.0,9.0,75,0.00,,,0.00,,2013-02-21 09:01:00,
2013-02-21 00:11:00,-8.0,-14.0,-100.00,NNE,25,6.0,9.0,75,0.00,,,0.00,,2013-02-21 09:11:00,
2013-02-21 00:22:00,-8.0,-13.0,-100.00,NNE,20,7.0,11.0,76,0.00,,,0.00,,2013-02-21 09:22:00,
2013-02-21 00:31:00,-8.0,-13.0,-100.00,NNE,20,7.0,11.0,76,0.00,,,0.00,,2013-02-21 09:31:00,
2013-02-21 00:41:00,-8.0,-13.0,-100.00,NNE,20,7.0,11.0,76,0.00,,,0.00,,2013-02-21 09:41:00,
2013-02-21 00:51:00,-5.0,-11.0,-100.00,NE,45,10.0,14.0,77,0.00,,,0.00,,2013-02-21 09:51:00,
2013-02-21 01:01:00,-5.0,-11.0,-100.00,NE,45,10.0,14.0,77,0.00,,,0.00,,2013-02-21 10:01:00,
2013-02-21 01:11:00,-5.0,-11.0,-100.00,NE,45,10.0,14.0,77,0.00,,,0.00,,2013-02-21 10:11:00,
2013-02-21 01:21:00,-5.0,-10.0,-100.00,NE,50,9.0,18.0,77,0.00,,,0.00,,2013-02-21 10:21:00,
2013-02-21 01:31:00,-5.0,-10.0,-100.00,NE,50,9.0,18.0,77,0.00,,,0.00,,2013-02-21 10:31:00,
2013-02-21 01:41:00,-5.0,-10.0,-100.00,NE,50,9.0,18.0,77,0.00,,,0.00,,2013-02-21 10:41:00,
2013-02-21 01:51:00,-8.0,-13.0,-100.00,NNE,25,6.0,11.0,77,0.00,,,0.00,,2013-02-21 10:51:00,
2013-02-21 02:01:00,-8.0,-13.0,-100.00,NNE,25,6.0,11.0,77,0.00,,,0.00,,2013-02-21 11:01:00,
2013-02-21 02:11:00,-8.0,-13.0,-100.00,NNE,25,6.0,11.0,77,0.00,,,0.00,,2013-02-21 11:11:00,
2013-02-21 02:21:00,-5.0,-10.0,-100.00,NE,35,10.0,18.0,77,0.00,,,0.00,,2013-02-21 11:21:00,
2013-02-21 02:31:00,-5.0,-10.0,-100.00,NE,35,10.0,18.0,77,0.00,,,0.00,,2013-02-21 11:31:00,
2013-02-21 02:41:00,-5.0,-10.0,-100.00,NE,35,10.0,18.0,77,0.00,,,0.00,,2013-02-21 11:41:00,
2013-02-21 02:51:00,-6.0,-11.0,-100.00,NE,40,7.0,17.0,78,0.00,,,0.00,,2013-02-21 11:51:00,
2013-02-21 03:01:00,-6.0,-11.0,-100.00,NE,40,7.0,17.0,78,0.00,,,0.00,,2013-02-21 12:01:00,
2013-02-21 03:11:00,-6.0,-11.0,-100.00,NE,40,7.0,17.0,78,0.00,,,0.00,,2013-02-21 12:11:00,
2013-02-21 03:21:00,-5.0,-10.0,-100.00,NE,55,7.0,12.0,78,0.00,,,0.00,,2013-02-21 12:21:00,
2013-02-21 03:32:00,-5.0,-10.0,-100.00,NE,55,7.0,12.0,78,0.00,,,0.00,,2013-02-21 12:32:00,
2013-02-21 03:42:00,-5.0,-10.0,-100.00,NE,55,7.0,12.0,78,0.00,,,0.00,,2013-02-21 12:42:00,
2013-02-21 03:52:00,-6.0,-11.0,-100.00,NE,40,9.0,15.0,78,0.00,,,0.00,,2013-02-21 12:52:00,
2013-02-21 04:01:00,-6.0,-11.0,-100.00,NE,40,9.0,15.0,78,0.00,,,0.00,,2013-02-21 13:01:00,
2013-02-21 04:12:00,-6.0,-11.0,-100.00,NE,40,9.0,15.0,78,0.00,,,0.00,,2013-02-21 13:12:00,
2013-02-21 04:22:00,-5.0,-10.0,-100.00,NE,55,9.0,16.0,78,0.00,,,0.00,,2013-02-21 13:22:00,
2013-02-21 04:32:00,-5.0,-10.0,-100.00,NE,55,9.0,16.0,78,0.00,,,0.00,,2013-02-21 13:32:00,
2013-02-21 04:41:00,-5.0,-10.0,-100.00,NE,55,9.0,16.0,78,0.00,,,0.00,,2013-02-21 13:41:00,
2013-02-21 04:51:00,-5.0,-9.0,-100.00,ENE,60,11.0,17.0,79,0.00,,,0.00,,2013-02-21 13:51:00,
2013-02-21 05:00:00,-6.0,-11.0,-100.00,NNE,30,7.0,12.0,78,0.00,,,0.00,,2013-02-21 14:00:00,
2013-02-21 05:02:00,-5.0,-9.0,-100.00,ENE,60,11.0,17.0,79,0.00,,,0.00,,2013-02-21 14:02:00,
2013-02-21 05:11:00,-5.0,-9.0,-100.00,ENE,60,11.0,17.0,79,0.00,,,0.00,,2013-02-21 14:11:00,
2013-02-21 05:21:00,-6.0,-11.0,-100.00,NE,40,8.0,12.0,78,0.00,,,0.00,,2013-02-21 14:21:00,
2013-02-21 05:32:00,-6.0,-11.0,-100.00,NE,40,8.0,12.0,78,0.00,,,0.00,,2013-02-21 14:32:00,
2013-02-21 05:41:00,-6.0,-11.0,-100.00,NE,40,8.0,12.0,78,0.00,,,0.00,,2013-02-21 14:41:00,
2013-02-21 05:52:00,-6.0,-11.0,-100.00,NNE,30,7.0,12.0,78,0.00,,,0.00,,2013-02-21 14:52:00,
2013-02-21 09:22:00,-6.0,-11.0,-100.00,NE,50,7.0,12.0,78,0.00,,,0.00,,2013-02-21 18:22:00,
2013-02-21 09:31:00,-6.0,-11.0,-100.00,NE,50,7.0,12.0,78,0.00,,,0.00,,2013-02-21 18:31:00,
2013-02-21 09:42:00,-6.0,-11.0,-100.00,NE,50,7.0,12.0,78,0.00,,,0.00,,2013-02-21 18:42:00,
2013-02-21 09:51:00,-6.0,-10.0,-100.00,NE,50,9.0,13.0,79,0.00,,,0.00,,2013-02-21 18:51:00,
2013-02-21 10:01:00,-6.0,-10.0,-100.00,NE,50,9.0,13.0,79,0.00,,,0.00,,2013-02-21 19:01:00,
2013-02-21 10:11:00,-6.0,-10.0,-100.00,NE,50,9.0,13.0,79,0.00,,,0.00,,2013-02-21 19:11:00,
2013-02-21 10:21:00,-5.0,-10.0,-100.00,NNE,30,6.0,14.0,79,0.00,,,0.00,,2013-02-21 19:21:00,
2013-02-21 10:31:00,-5.0,-10.0,-100.00,NNE,30,6.0,14.0,79,0.00,,,0.00,,2013-02-21 19:31:00,
2013-02-21 10:41:00,-5.0,-10.0,-100.00,NNE,30,6.0,14.0,79,0.00,,,0.00,,2013-02-21 19:41:00,
2013-02-21 10:51:00,-5.0,-10.0,-100.00,NE,55,7.0,12.0,79,0.00,,,0.00,,2013-02-21 19:51:00,
2013-02-21 11:01:00,-5.0,-10.0,-100.00,NE,55,7.0,12.0,79,0.00,,,0.00,,2013-02-21 20:01:00,
2013-02-21 11:11:00,-5.0,-10.0,-100.00,NE,55,7.0,12.0,79,0.00,,,0.00,,2013-02-21 20:11:00,
2013-02-21 11:21:00,-5.0,-10.0,-100.00,NE,50,8.0,14.0,79,0.00,,,0.00,,2013-02-21 20:21:00,
2013-02-21 11:31:00,-5.0,-10.0,-100.00,NE,50,8.0,14.0,79,0.00,,,0.00,,2013-02-21 20:31:00,
2013-02-21 11:41:00,-5.0,-10.0,-100.00,NE,50,8.0,14.0,79,0.00,,,0.00,,2013-02-21 20:41:00,
2013-02-21 11:52:00,-5.0,-10.0,-100.00,NE,55,9.0,13.0,78,0.00,,,0.00,,2013-02-21 20:52:00,
2013-02-21 12:02:00,-5.0,-10.0,-100.00,NE,55,9.0,13.0,78,0.00,,,0.00,,2013-02-21 21:02:00,
2013-02-21 12:11:00,-5.0,-10.0,-100.00,NE,55,9.0,13.0,78,0.00,,,0.00,,2013-02-21 21:11:00,
2013-02-21 12:21:00,-5.0,-10.0,-100.00,NE,35,9.0,12.0,78,0.00,,,0.00,,2013-02-21 21:21:00,
2013-02-21 12:31:00,-5.0,-10.0,-100.00,NE,35,9.0,12.0,78,0.00,,,0.00,,2013-02-21 21:31:00,
2013-02-21 12:41:00,-5.0,-10.0,-100.00,NE,35,9.0,12.0,78,0.00,,,0.00,,2013-02-21 21:41:00,
2013-02-21 12:51:00,-4.0,-9.0,-100.00,ENE,60,9.0,15.0,78,0.00,,,0.00,,2013-02-21 21:51:00,
2013-02-21 13:01:00,-4.0,-9.0,-100.00,ENE,60,9.0,15.0,78,0.00,,,0.00,,2013-02-21 22:01:00,
2013-02-21 13:11:00,-4.0,-9.0,-100.00,ENE,60,9.0,15.0,78,0.00,,,0.00,,2013-02-21 22:11:00,
2013-02-21 13:21:00,-4.0,-9.0,-100.00,NE,55,9.0,14.0,77,0.00,,,0.00,,2013-02-21 22:21:00,
2013-02-21 13:31:00,-4.0,-9.0,-100.00,NE,55,9.0,14.0,77,0.00,,,0.00,,2013-02-21 22:31:00,
2013-02-21 13:41:00,-4.0,-9.0,-100.00,NE,55,9.0,14.0,77,0.00,,,0.00,,2013-02-21 22:41:00,
2013-02-21 13:52:00,-3.0,-9.0,-100.00,ENE,60,8.0,14.0,76,0.00,,,0.00,,2013-02-21 22:52:00,
2013-02-21 14:01:00,-3.0,-9.0,-100.00,ENE,60,8.0,14.0,76,0.00,,,0.00,,2013-02-21 23:01:00,
2013-02-21 14:11:00,-3.0,-9.0,-100.00,ENE,60,8.0,14.0,76,0.00,,,0.00,,2013-02-21 23:11:00,
2013-02-21 14:21:00,-3.0,-8.0,-100.00,NE,55,9.0,12.0,76,0.00,,,0.00,,2013-02-21 23:21:00,
2013-02-21 14:31:00,-3.0,-8.0,-100.00,NE,55,9.0,12.0,76,0.00,,,0.00,,2013-02-21 23:31:00,
2013-02-21 14:41:00,-3.0,-8.0,-100.00,NE,55,9.0,12.0,76,0.00,,,0.00,,2013-02-21 23:41:00,
2013-02-21 14:52:00,-2.0,-8.0,-100.00,NE,50,7.0,11.0,74,0.00,,,0.00,,2013-02-21 23:52:00,
2013-02-21 15:01:00,-2.0,-8.0,-100.00,NE,50,7.0,11.0,74,0.00,,,0.00,,2013-02-22 00:01:00,
2013-02-21 15:11:00,-2.0,-8.0,-100.00,NE,50,7.0,11.0,74,0.00,,,0.00,,2013-02-22 00:11:00,
2013-02-21 15:21:00,-2.0,-9.0,-100.00,NE,55,9.0,18.0,74,0.00,,,0.00,,2013-02-22 00:21:00,
2013-02-21 15:31:00,-2.0,-9.0,-100.00,NE,55,9.0,18.0,74,0.00,,,0.00,,2013-02-22 00:31:00,
2013-02-21 15:41:00,-2.0,-9.0,-100.00,NE,55,9.0,18.0,74,0.00,,,0.00,,2013-02-22 00:41:00,
2013-02-21 15:51:00,-2.0,-9.0,-100.00,NE,40,8.0,15.0,73,0.00,,,0.00,,2013-02-22 00:51:00,
2013-02-21 16:01:00,-2.0,-9.0,-100.00,NE,40,8.0,15.0,73,0.00,,,0.00,,2013-02-22 01:01:00,
2013-02-21 16:11:00,-2.0,-9.0,-100.00,NE,40,8.0,15.0,73,0.00,,,0.00,,2013-02-22 01:11:00,
2013-02-21 16:21:00,-2.0,-8.0,-100.00,NE,35,6.0,12.0,73,0.00,,,0.00,,2013-02-22 01:21:00,
2013-02-21 16:32:00,-2.0,-8.0,-100.00,NE,35,6.0,12.0,73,0.00,,,0.00,,2013-02-22 01:32:00,
2013-02-21 16:42:00,-2.0,-8.0,-100.00,NE,35,6.0,12.0,73,0.00,,,0.00,,2013-02-22 01:42:00,
2013-02-21 16:51:00,-2.0,-8.0,-100.00,NE,45,6.0,10.0,74,0.00,,,0.00,,2013-02-22 01:51:00,
2013-02-21 17:02:00,-2.0,-8.0,-100.00,NE,45,6.0,10.0,74,0.00,,,0.00,,2013-02-22 02:02:00,
2013-02-21 17:11:00,-2.0,-8.0,-100.00,NE,45,6.0,10.0,74,0.00,,,0.00,,2013-02-22 02:11:00,
2013-02-21 17:21:00,-5.0,-10.0,-100.00,North,5,4.0,9.0,75,0.00,,,0.00,,2013-02-22 02:21:00,
2013-02-21 17:31:00,-5.0,-10.0,-100.00,North,5,4.0,9.0,75,0.00,,,0.00,,2013-02-22 02:31:00,
2013-02-21 17:42:00,-5.0,-10.0,-100.00,North,5,4.0,9.0,75,0.00,,,0.00,,2013-02-22 02:42:00,
2013-02-21 17:52:00,-8.0,-13.0,-100.00,North,5,6.0,8.0,77,0.00,,,0.00,,2013-02-22 02:52:00,
2013-02-21 18:01:00,-8.0,-13.0,-100.00,North,5,6.0,8.0,77,0.00,,,0.00,,2013-02-22 03:01:00,
2013-02-21 18:11:00,-8.0,-13.0,-100.00,North,5,6.0,8.0,77,0.00,,,0.00,,2013-02-22 03:11:00,
2013-02-21 18:21:00,-9.0,-14.0,-100.00,North,5,6.0,7.0,78,0.00,,,0.00,,2013-02-22 03:21:00,
2013-02-21 18:31:00,-9.0,-14.0,-100.00,North,5,6.0,7.0,78,0.00,,,0.00,,2013-02-22 03:31:00,
2013-02-21 18:41:00,-9.0,-14.0,-100.00,North,5,6.0,7.0,78,0.00,,,0.00,,2013-02-22 03:41:00,
2013-02-21 18:51:00,-9.0,-14.0,-100.00,NNE,20,6.0,10.0,78,0.00,,,0.00,,2013-02-22 03:51:00,
2013-02-21 19:01:00,-9.0,-14.0,-100.00,NNE,20,6.0,10.0,78,0.00,,,0.00,,2013-02-22 04:01:00,
2013-02-21 19:11:00,-9.0,-14.0,-100.00,NNE,20,6.0,10.0,78,0.00,,,0.00,,2013-02-22 04:11:00,
2013-02-21 19:21:00,-10.0,-15.0,-100.00,NNE,15,6.0,9.0,78,0.00,,,0.00,,2013-02-22 04:21:00,
2013-02-21 19:32:00,-10.0,-15.0,-100.00,NNE,15,6.0,9.0,78,0.00,,,0.00,,2013-02-22 04:32:00,
2013-02-21 19:42:00,-10.0,-15.0,-100.00,NNE,15,6.0,9.0,78,0.00,,,0.00,,2013-02-22 04:42:00,
2013-02-21 19:51:00,-11.0,-16.0,-100.00,North,10,7.0,12.0,78,0.00,,,0.00,,2013-02-22 04:51:00,
2013-02-21 20:01:00,-11.0,-16.0,-100.00,North,10,7.0,12.0,78,0.00,,,0.00,,2013-02-22 05:01:00,
2013-02-21 20:11:00,-11.0,-16.0,-100.00,North,10,7.0,12.0,78,0.00,,,0.00,,2013-02-22 05:11:00,
2013-02-21 20:22:00,-10.0,-15.0,-100.00,NNE,20,6.0,10.0,78,0.00,,,0.00,,2013-02-22 05:22:00,
2013-02-21 20:32:00,-10.0,-15.0,-100.00,NNE,20,6.0,10.0,78,0.00,,,0.00,,2013-02-22 05:32:00,
2013-02-21 20:41:00,-10.0,-15.0,-100.00,NNE,20,6.0,10.0,78,0.00,,,0.00,,2013-02-22 05:41:00,
2013-02-21 20:52:00,-11.0,-16.0,-100.00,North,5,6.0,7.0,77,0.00,,,0.00,,2013-02-22 05:52:00,
2013-02-21 21:01:00,-11.0,-16.0,-100.00,North,5,6.0,7.0,77,0.00,,,0.00,,2013-02-22 06:01:00,
2013-02-21 21:11:00,-11.0,-16.0,-100.00,North,5,6.0,7.0,77,0.00,,,0.00,,2013-02-22 06:11:00,
2013-02-21 21:21:00,-11.0,-16.0,-100.00,North,10,5.0,7.0,77,0.00,,,0.00,,2013-02-22 06:21:00,
2013-02-21 21:31:00,-11.0,-16.0,-100.00,North,10,5.0,7.0,77,0.00,,,0.00,,2013-02-22 06:31:00,
2013-02-21 21:42:00,-11.0,-16.0,-100.00,North,10,5.0,7.0,77,0.00,,,0.00,,2013-02-22 06:42:00,
2013-02-21 21:51:00,-11.0,-16.0,-100.00,NNE,15,4.0,9.0,77,0.00,,,0.00,,2013-02-22 06:51:00,
2013-02-21 22:01:00,-11.0,-16.0,-100.00,NNE,15,4.0,9.0,77,0.00,,,0.00,,2013-02-22 07:01:00,
2013-02-21 22:11:00,-11.0,-16.0,-100.00,NNE,15,4.0,9.0,77,0.00,,,0.00,,2013-02-22 07:11:00,
2013-02-21 22:21:00,-11.0,-16.0,-100.00,North,10,6.0,7.0,77,0.00,,,0.00,,2013-02-22 07:21:00,
2013-02-21 22:31:00,-11.0,-16.0,-100.00,North,10,6.0,7.0,77,0.00,,,0.00,,2013-02-22 07:31:00,
2013-02-21 22:42:00,-11.0,-16.0,-100.00,North,10,6.0,7.0,77,0.00,,,0.00,,2013-02-22 07:42:00,
2013-02-21 22:51:00,-12.0,-17.0,-100.00,NNE,15,6.0,7.0,77,0.00,,,0.00,,2013-02-22 07:51:00,
2013-02-21 23:01:00,-12.0,-17.0,-100.00,NNE,15,6.0,7.0,77,0.00,,,0.00,,2013-02-22 08:01:00,
2013-02-21 23:11:00,-12.0,-17.0,-100.00,NNE,15,6.0,7.0,77,0.00,,,0.00,,2013-02-22 08:11:00,
2013-02-21 23:21:00,-12.0,-17.0,-100.00,NNE,15,5.0,7.0,77,0.00,,,0.00,,2013-02-22 08:21:00,
2013-02-21 23:31:00,-12.0,-17.0,-100.00,NNE,15,5.0,7.0,77,0.00,,,0.00,,2013-02-22 08:31:00,
2013-02-21 23:41:00,-12.0,-17.0,-100.00,NNE,15,5.0,7.0,77,0.00,,,0.00,,2013-02-22 08:41:00,
2013-02-21 23:52:00,-12.0,-18.0,-100.00,North,5,4.0,6.0,77,0.00,,,0.00,,2013-02-22 08:52:00,